createdAt,value
2019-04-11T00:01:03.861Z,6.48
2019-04-11T00:03:33.498Z,6.50
2019-04-11T00:06:03.363Z,6.48
2019-04-11T00:08:32.248Z,6.48
2019-04-11T00:11:01.756Z,6.50
2019-04-11T00:13:33.422Z,6.50
2019-04-11T00:16:01.417Z,6.46
2019-04-11T00:18:30.423Z,6.40
2019-04-11T00:21:00.310Z,6.43
2019-04-11T00:23:30.231Z,6.45
2019-04-11T00:26:00.048Z,6.48
2019-04-11T00:28:29.878Z,6.51
2019-04-11T00:30:58.896Z,6.45
2019-04-11T00:33:27.704Z,6.46
2019-04-11T00:35:56.485Z,6.50
2019-04-11T00:38:25.723Z,6.48
2019-04-11T00:40:54.852Z,6.46
2019-04-11T00:43:31.678Z,6.50
2019-04-11T00:45:54.197Z,6.48
2019-04-11T00:48:23.866Z,6.47
2019-04-11T00:50:53.806Z,6.44
2019-04-11T00:53:22.706Z,6.39
2019-04-11T00:55:51.696Z,6.35
2019-04-11T00:58:21.334Z,6.31
2019-04-11T01:00:51.111Z,6.25
2019-04-11T01:03:20.208Z,6.21
2019-04-11T01:05:51.970Z,6.13
2019-04-11T01:08:21.833Z,6.13
2019-04-11T01:10:51.784Z,6.01
2019-04-11T01:13:20.962Z,6.00
2019-04-11T01:16:01.519Z,5.99
2019-04-11T01:18:30.386Z,5.97
2019-04-11T01:20:59.860Z,5.95
2019-04-11T01:23:29.180Z,5.95
2019-04-11T01:25:59.081Z,5.91
2019-04-11T01:28:28.911Z,5.93
2019-04-11T01:31:06.999Z,5.92
2019-04-11T01:33:35.994Z,5.89
2019-04-11T01:36:04.948Z,5.89
2019-04-11T01:38:36.629Z,5.89
2019-04-11T01:41:06.579Z,5.89
2019-04-11T01:43:35.776Z,5.89
2019-04-11T01:46:05.662Z,5.88
2019-04-11T01:48:43.868Z,5.92
2019-04-11T01:51:14.277Z,5.91
2019-04-11T01:53:43.583Z,5.90
2019-04-11T01:56:14.819Z,5.88
2019-04-11T01:58:43.748Z,5.87
2019-04-11T02:01:32.652Z,5.84
2019-04-11T02:04:09.859Z,5.82
2019-04-11T02:06:38.671Z,5.82
2019-04-11T02:09:12.001Z,5.84
2019-04-11T02:11:41.540Z,5.82
2019-04-11T02:14:16.135Z,5.77
2019-04-11T02:16:41.167Z,5.81
2019-04-11T02:19:10.206Z,5.77
2019-04-11T02:21:40.224Z,5.79
2019-04-11T02:24:27.929Z,5.78
2019-04-11T02:27:04.120Z,5.76
2019-04-11T02:29:33.378Z,5.75
2019-04-11T02:32:05.162Z,5.75
2019-04-11T02:34:32.893Z,5.72
2019-04-11T02:37:02.416Z,5.74
2019-04-11T02:39:33.394Z,5.74
2019-04-11T02:42:03.717Z,5.73
2019-04-11T02:44:52.723Z,5.71
2019-04-11T02:47:09.877Z,5.71
2019-04-11T02:49:35.227Z,5.67
2019-04-11T02:52:04.548Z,5.65
2019-04-11T02:54:34.457Z,5.68
2019-04-11T02:57:03.471Z,5.70
2019-04-11T02:59:32.532Z,5.69
2019-04-11T03:02:01.851Z,5.68
2019-04-11T03:04:31.539Z,5.63
2019-04-11T03:07:00.553Z,5.62
2019-04-11T03:09:31.121Z,5.61
2019-04-11T03:12:00.400Z,5.63
2019-04-11T03:14:46.102Z,5.56
2019-04-11T03:17:12.047Z,5.57
2019-04-11T03:19:44.067Z,5.53
2019-04-11T03:22:03.109Z,5.54
2019-04-11T03:24:33.432Z,5.53
2019-04-11T03:27:04.809Z,5.53
2019-04-11T03:29:35.416Z,5.51
2019-04-11T03:32:51.960Z,5.52
2019-04-11T03:35:23.201Z,5.47
2019-04-11T03:37:26.222Z,5.46
2019-04-11T03:39:57.246Z,5.47
2019-04-11T03:42:22.158Z,5.44
2019-04-11T03:44:44.102Z,5.46
2019-04-11T03:47:26.492Z,5.44
2019-04-11T03:49:46.741Z,5.39
2019-04-11T03:52:12.112Z,5.39
2019-04-11T03:54:42.613Z,5.33
2019-04-11T03:57:13.360Z,5.33
2019-04-11T03:59:43.783Z,5.28
2019-04-11T04:02:14.640Z,5.23
2019-04-11T04:04:44.146Z,5.21
2019-04-11T04:07:16.518Z,5.15
2019-04-11T04:09:46.234Z,5.16
2019-04-11T04:12:15.589Z,5.14
2019-04-11T04:14:56.126Z,5.20
2019-04-11T04:17:53.089Z,5.10
2019-04-11T04:20:39.599Z,5.10
2019-04-11T04:23:16.686Z,5.09
2019-04-11T04:25:49.240Z,5.09
2019-04-11T04:28:19.155Z,5.09
2019-04-11T04:30:49.374Z,5.05
2019-04-11T04:33:20.162Z,5.01
2019-04-11T04:35:49.592Z,5.03
2019-04-11T04:38:19.045Z,5.00
2019-04-11T04:41:00.422Z,5.01
2019-04-11T04:43:19.493Z,5.00
2019-04-11T04:46:06.599Z,4.99
2019-04-11T04:48:23.093Z,5.00
2019-04-11T04:50:52.366Z,4.94
2019-04-11T04:53:23.445Z,4.95
2019-04-11T04:55:52.812Z,4.96
2019-04-11T04:58:24.022Z,4.92
2019-04-11T05:00:58.563Z,4.92
2019-04-11T05:03:27.342Z,4.88
2019-04-11T05:05:56.302Z,4.90
2019-04-11T05:08:26.959Z,4.88
2019-04-11T05:10:58.832Z,4.89
2019-04-11T05:13:27.996Z,4.87
2019-04-11T05:16:06.837Z,4.84
2019-04-11T05:18:30.369Z,4.85
2019-04-11T05:21:01.131Z,4.83
2019-04-11T05:23:29.900Z,4.85
2019-04-11T05:25:59.980Z,4.86
2019-04-11T05:28:29.802Z,4.91
2019-04-11T05:30:58.667Z,4.93
2019-04-11T05:33:27.509Z,4.97
2019-04-11T05:35:56.486Z,4.97
2019-04-11T05:38:25.426Z,4.93
2019-04-11T05:40:54.640Z,4.92
2019-04-11T05:43:28.101Z,4.93
2019-04-11T05:45:55.210Z,4.95
2019-04-11T05:48:45.231Z,4.92
2019-04-11T05:51:18.563Z,4.98
2019-04-11T05:53:46.075Z,5.00
2019-04-11T05:56:17.779Z,4.97
2019-04-11T05:58:47.716Z,5.01
2019-04-11T06:01:27.874Z,5.04
2019-04-11T06:04:00.502Z,5.06
2019-04-11T06:06:40.323Z,5.05
2019-04-11T06:09:15.908Z,5.05
2019-04-11T06:11:58.429Z,5.04
2019-04-11T06:14:52.339Z,5.06
2019-04-11T06:17:23.876Z,5.13
2019-04-11T06:20:11.149Z,5.14
2019-04-11T06:22:46.209Z,5.18
2019-04-11T06:25:46.319Z,5.20
2019-04-11T06:28:24.301Z,5.25
2019-04-11T06:31:18.199Z,5.31
2019-04-11T06:33:54.815Z,5.34
2019-04-11T06:36:46.898Z,5.40
2019-04-11T06:39:36.314Z,5.42
2019-04-11T06:42:27.560Z,5.48
2019-04-11T06:45:09.717Z,5.52
2019-04-11T06:47:53.378Z,5.52
2019-04-11T06:50:28.078Z,5.55
2019-04-11T06:52:58.197Z,5.56
2019-04-11T06:55:45.252Z,5.57
2019-04-11T06:58:19.284Z,5.63
2019-04-11T07:00:53.618Z,5.64
2019-04-11T07:03:29.240Z,5.68
2019-04-11T07:05:59.194Z,5.72
2019-04-11T07:08:39.128Z,5.73
2019-04-11T07:11:09.454Z,5.78
2019-04-11T07:13:50.339Z,5.84
2019-04-11T07:16:20.213Z,5.91
2019-04-11T07:19:09.201Z,5.97
2019-04-11T07:21:41.918Z,6.02
2019-04-11T07:24:47.818Z,6.08
2019-04-11T07:27:18.114Z,6.15
2019-04-11T07:29:56.824Z,6.12
2019-04-11T07:32:29.873Z,6.18
2019-04-11T07:35:30.222Z,6.20
2019-04-11T07:37:59.308Z,6.29
2019-04-11T07:41:08.848Z,6.27
2019-04-11T07:43:41.161Z,6.26
2019-04-11T07:46:29.213Z,6.30
2019-04-11T07:49:08.344Z,6.34
2019-04-11T07:51:51.406Z,6.36
2019-04-11T07:54:25.923Z,6.42
2019-04-11T07:57:19.789Z,6.47
2019-04-11T08:00:34.955Z,6.44
2019-04-11T08:03:19.156Z,6.48
2019-04-11T08:06:17.110Z,6.31
2019-04-11T08:09:18.775Z,6.35
2019-04-11T08:11:56.195Z,6.34
2019-04-11T08:14:42.478Z,6.43
2019-04-11T08:17:35.723Z,6.51
2019-04-11T08:20:15.541Z,6.53
2019-04-11T08:22:59.173Z,6.56
2019-04-11T08:25:47.983Z,6.58
2019-04-11T08:28:18.524Z,6.62
2019-04-11T08:30:59.429Z,6.64
2019-04-11T08:33:30.615Z,6.71
2019-04-11T08:36:09.371Z,6.76
2019-04-11T08:38:38.395Z,6.83
2019-04-11T08:41:32.338Z,6.90
2019-04-11T08:44:05.609Z,6.98
2019-04-11T08:46:40.338Z,7.12
2019-04-11T08:49:28.518Z,7.23
2019-04-11T08:52:07.641Z,7.34
2019-04-11T08:54:57.622Z,7.43
2019-04-11T08:57:49.853Z,7.53
2019-04-11T09:00:51.179Z,7.64
2019-04-11T09:03:37.805Z,7.81
2019-04-11T09:06:18.697Z,7.92
2019-04-11T09:09:07.287Z,8.05
2019-04-11T09:11:45.137Z,8.12
2019-04-11T09:14:38.120Z,8.28
2019-04-11T09:17:32.605Z,8.39
2019-04-11T09:20:23.409Z,8.52
2019-04-11T09:23:07.054Z,8.65
2019-04-11T09:25:56.586Z,8.67
2019-04-11T09:28:41.789Z,8.93
2019-04-11T09:31:45.687Z,9.13
2019-04-11T09:34:44.246Z,9.22
2019-04-11T09:37:46.252Z,9.45
2019-04-11T09:40:39.516Z,9.85
2019-04-11T09:43:28.292Z,10.29
2019-04-11T09:46:22.068Z,10.44
2019-04-11T09:49:18.470Z,10.67
2019-04-11T09:52:09.985Z,10.61
2019-04-11T09:55:23.415Z,10.58
2019-04-11T09:58:02.860Z,10.72
2019-04-11T10:01:01.683Z,10.68
2019-04-11T10:03:34.696Z,10.72
2019-04-11T10:06:36.743Z,10.85
2019-04-11T10:09:15.524Z,10.82
2019-04-11T10:12:04.588Z,11.00
2019-04-11T10:14:43.901Z,11.33
2019-04-11T10:17:33.906Z,11.54
2019-04-11T10:20:09.084Z,11.58
2019-04-11T10:23:17.238Z,11.65
2019-04-11T10:25:56.081Z,11.64
2019-04-11T10:28:50.196Z,11.44
2019-04-11T10:31:22.192Z,11.30
2019-04-11T10:34:21.687Z,11.29
2019-04-11T10:37:23.455Z,11.26
2019-04-11T10:40:17.791Z,11.47
2019-04-11T10:42:55.972Z,11.48
2019-04-11T10:46:05.525Z,11.54
2019-04-11T10:48:47.070Z,11.46
2019-04-11T10:51:39.761Z,11.46
2019-04-11T10:54:09.691Z,11.29
2019-04-11T10:57:03.912Z,11.29
2019-04-11T10:59:34.777Z,11.36
2019-04-11T11:02:25.601Z,11.23
2019-04-11T11:04:56.992Z,11.34
2019-04-11T11:07:35.455Z,11.47
2019-04-11T11:10:14.043Z,11.51
2019-04-11T11:13:04.227Z,11.32
2019-04-11T11:15:51.694Z,11.42
2019-04-11T11:19:15.630Z,11.60
2019-04-11T11:21:25.981Z,11.61
2019-04-11T11:24:16.277Z,11.62
2019-04-11T11:26:57.958Z,11.28
2019-04-11T11:29:51.687Z,11.20
2019-04-11T11:32:36.286Z,11.28
2019-04-11T11:35:32.058Z,11.42
2019-04-11T11:38:19.918Z,11.46
2019-04-11T11:41:22.579Z,11.43
2019-04-11T11:43:57.510Z,11.40
2019-04-11T11:46:59.830Z,11.37
2019-04-11T11:49:44.937Z,11.48
2019-04-11T11:52:22.864Z,11.66
2019-04-11T11:55:02.100Z,11.75
2019-04-11T11:58:03.435Z,11.81
2019-04-11T12:00:38.848Z,11.40
2019-04-11T12:03:30.997Z,11.54
2019-04-11T12:06:03.051Z,11.36
2019-04-11T12:09:06.502Z,11.13
2019-04-11T12:11:36.112Z,11.23
2019-04-11T12:14:24.281Z,11.23
2019-04-11T12:17:19.271Z,11.35
2019-04-11T12:20:04.817Z,11.37
2019-04-11T12:22:28.497Z,11.62
2019-04-11T12:25:09.195Z,11.67
2019-04-11T12:27:54.764Z,11.81
2019-04-11T12:30:41.887Z,11.78
2019-04-11T12:33:31.644Z,11.91
2019-04-11T12:36:10.623Z,12.03
2019-04-11T12:38:48.032Z,12.31
2019-04-11T12:41:23.503Z,12.43
2019-04-11T12:44:20.797Z,12.61
2019-04-11T12:47:20.967Z,12.61
2019-04-11T12:50:08.926Z,12.45
2019-04-11T12:52:53.438Z,12.58
2019-04-11T12:55:44.871Z,12.26
2019-04-11T12:58:40.626Z,12.35
2019-04-11T13:01:26.100Z,12.52
2019-04-11T13:04:12.712Z,12.53
2019-04-11T13:07:15.918Z,12.49
2019-04-11T13:09:53.735Z,12.70
2019-04-11T13:12:38.519Z,12.74
2019-04-11T13:15:17.011Z,12.77
2019-04-11T13:17:51.826Z,12.97
2019-04-11T13:20:50.845Z,12.87
2019-04-11T13:23:40.441Z,13.06
2019-04-11T13:26:34.463Z,13.06
2019-04-11T13:29:29.377Z,12.86
2019-04-11T13:32:19.001Z,12.85
2019-04-11T13:34:49.516Z,13.12
2019-04-11T13:37:42.826Z,13.32
2019-04-11T13:40:33.823Z,13.30
2019-04-11T13:43:25.790Z,13.25
2019-04-11T13:46:13.714Z,13.23
2019-04-11T13:49:01.920Z,13.28
2019-04-11T13:51:48.635Z,12.97
2019-04-11T13:54:42.747Z,13.04
2019-04-11T13:57:38.816Z,12.86
2019-04-11T14:00:45.121Z,12.81
2019-04-11T14:03:44.992Z,12.80
2019-04-11T14:06:35.996Z,12.68
2019-04-11T14:09:36.420Z,12.44
2019-04-11T14:12:17.953Z,12.38
2019-04-11T14:14:54.793Z,12.43
2019-04-11T14:42:01.135Z,11.78
2019-04-11T14:44:31.881Z,11.78
2019-04-11T14:47:26.645Z,11.64
2019-04-11T14:50:01.748Z,11.77
2019-04-11T14:52:47.273Z,11.82
2019-04-11T14:55:21.719Z,11.81
2019-04-11T14:58:07.708Z,11.78
2019-04-11T15:00:49.206Z,11.70
2019-04-11T15:03:43.450Z,11.66
2019-04-11T15:06:19.396Z,11.59
2019-04-11T15:09:02.705Z,11.40
2019-04-11T15:12:10.443Z,11.35
2019-04-11T15:14:57.242Z,11.28
2019-04-11T15:17:36.210Z,11.27
2019-04-11T15:20:26.543Z,11.30
2019-04-11T15:23:08.725Z,11.36
2019-04-11T15:26:08.977Z,11.29
2019-04-11T15:28:56.101Z,11.39
2019-04-11T15:31:59.522Z,11.48
2019-04-11T15:34:41.672Z,11.55
2019-04-11T15:37:35.590Z,11.64
2019-04-11T15:40:10.521Z,11.73
2019-04-11T15:42:56.919Z,11.77
2019-04-11T15:45:35.903Z,11.56
2019-04-11T15:48:35.829Z,11.55
2019-04-11T15:51:22.273Z,11.59
2019-04-11T15:54:06.878Z,11.62
2019-04-11T15:56:56.819Z,11.55
2019-04-11T15:59:56.626Z,11.52
2019-04-11T16:02:44.543Z,11.42
2019-04-11T16:05:47.686Z,11.31
2019-04-11T16:08:32.013Z,11.18
2019-04-11T16:11:33.606Z,10.98
2019-04-11T16:14:21.529Z,10.76
2019-04-11T16:17:13.926Z,10.44
2019-04-11T16:19:48.884Z,10.26
2019-04-11T16:22:55.054Z,10.13
2019-04-11T16:28:38.248Z,9.95
2019-04-11T16:31:09.845Z,9.85
2019-04-11T16:34:01.303Z,9.73
2019-04-11T16:37:07.662Z,9.68
2019-04-11T16:39:55.606Z,9.51
2019-04-11T16:42:45.361Z,9.53
2019-04-11T16:45:40.100Z,9.44
2019-04-11T16:48:09.165Z,9.32
2019-04-11T16:50:38.172Z,9.34
2019-04-11T16:53:10.513Z,9.34
2019-04-11T16:55:42.072Z,9.26
2019-04-11T16:58:09.974Z,9.26
2019-04-11T17:00:39.017Z,9.14
2019-04-11T17:03:10.202Z,9.12
2019-04-11T17:05:41.110Z,9.11
2019-04-11T17:08:33.137Z,9.06
2019-04-11T17:11:13.301Z,8.98
2019-04-11T17:13:42.549Z,8.95
2019-04-11T17:16:14.555Z,8.93
2019-04-11T17:18:43.629Z,8.83
2019-04-11T17:21:12.768Z,8.74
2019-04-11T17:23:41.935Z,8.68
2019-04-11T17:26:12.699Z,8.65
2019-04-11T17:28:44.133Z,8.59
2019-04-11T17:31:14.963Z,8.45
2019-04-11T17:33:44.142Z,8.41
2019-04-11T17:36:13.182Z,8.36
2019-04-11T17:38:42.529Z,8.28
2019-04-11T17:41:12.106Z,8.24
2019-04-11T17:43:46.682Z,8.14
2019-04-11T17:46:14.315Z,8.02
2019-04-11T17:48:43.416Z,7.98
2019-04-11T17:51:13.747Z,7.98
2019-04-11T17:53:43.675Z,7.88
2019-04-11T17:56:14.396Z,7.84
2019-04-11T17:58:46.428Z,7.83
2019-04-11T18:01:17.012Z,7.72
2019-04-11T18:03:46.042Z,7.68
2019-04-11T18:06:17.123Z,7.70
2019-04-11T18:08:46.695Z,7.69
2019-04-11T18:11:15.652Z,7.61
2019-04-11T18:13:44.472Z,7.53
2019-04-11T18:16:13.400Z,7.47
2019-04-11T18:18:42.194Z,7.42
2019-04-11T18:21:12.820Z,7.43
2019-04-11T18:23:41.800Z,7.30
2019-04-11T18:26:10.788Z,7.28
2019-04-11T18:28:39.688Z,7.24
2019-04-11T18:31:08.596Z,7.21
2019-04-11T18:33:37.542Z,7.18
2019-04-11T18:36:06.933Z,7.16
2019-04-11T18:38:35.881Z,7.11
2019-04-11T18:41:04.974Z,7.06
2019-04-11T18:43:33.937Z,7.03
2019-04-11T18:46:02.871Z,7.00
2019-04-11T18:48:31.797Z,6.96
2019-04-11T18:51:01.031Z,6.94
2019-04-11T18:53:32.503Z,6.87
2019-04-11T18:56:01.958Z,6.81
2019-04-11T18:58:43.963Z,6.77
2019-04-11T19:01:23.539Z,6.66
2019-04-11T19:04:17.436Z,6.64
2019-04-11T19:06:56.360Z,6.58
2019-04-11T19:50:21.821Z,6.01
2019-04-11T19:55:52.443Z,6.00
2019-04-11T19:58:27.123Z,5.97
2019-04-11T20:01:13.287Z,5.96
2019-04-11T20:03:56.249Z,5.95
2019-04-11T20:06:51.414Z,5.95
2019-04-11T20:09:38.287Z,5.95
2019-04-11T20:28:28.861Z,5.83
2019-04-11T20:31:35.469Z,5.81
2019-04-11T20:34:09.159Z,5.79
2019-04-11T20:36:56.467Z,5.80
2019-04-11T20:39:26.531Z,5.82
2019-04-11T20:44:49.492Z,5.78
2019-04-11T20:53:22.992Z,5.72
2019-04-11T20:56:02.568Z,5.69
2019-04-11T20:58:35.151Z,5.58
2019-04-11T21:01:05.210Z,5.58
2019-04-11T21:03:38.708Z,5.56
2019-04-11T21:06:07.880Z,5.50
2019-04-11T21:08:36.990Z,5.46
2019-04-11T21:11:09.828Z,5.42
2019-04-11T21:13:39.073Z,5.39
2019-04-11T21:16:14.671Z,5.28
2019-04-11T21:18:43.955Z,5.22
2019-04-11T21:21:13.139Z,5.23
2019-04-11T21:23:43.792Z,5.18
2019-04-11T21:26:13.031Z,5.13
2019-04-11T21:28:42.215Z,5.08
2019-04-11T21:31:11.388Z,5.00
2019-04-11T21:33:40.417Z,5.03
2019-04-11T21:36:09.675Z,5.01
2019-04-11T21:38:41.973Z,4.97
2019-04-11T21:41:12.753Z,4.91
2019-04-11T21:43:41.967Z,4.81
2019-04-11T21:46:11.182Z,4.79
2019-04-11T21:48:40.211Z,4.78
2019-04-11T21:51:11.352Z,4.68
2019-04-11T21:53:46.587Z,4.66
2019-04-11T21:56:15.920Z,4.61
2019-04-11T21:58:49.916Z,4.51
2019-04-11T22:01:18.194Z,4.51
2019-04-11T22:03:47.288Z,4.45
2019-04-11T22:06:16.222Z,4.42
2019-04-11T22:08:45.394Z,4.38
2019-04-11T22:11:14.385Z,4.32
2019-04-11T22:13:43.523Z,4.30
2019-04-11T22:16:14.196Z,4.28
2019-04-11T22:18:44.347Z,4.26
2019-04-11T22:21:15.554Z,4.22
2019-04-11T22:23:49.107Z,4.15
2019-04-11T22:26:17.845Z,4.14
2019-04-11T22:28:47.056Z,4.10
2019-04-11T22:31:16.194Z,4.02
2019-04-11T22:33:59.150Z,3.90
2019-04-11T22:36:30.629Z,3.90
2019-04-11T22:39:01.031Z,3.89
2019-04-11T22:41:30.171Z,3.87
2019-04-11T22:43:59.260Z,3.85
2019-04-11T22:46:28.339Z,3.78
2019-04-11T22:48:58.460Z,3.72
2019-04-11T22:51:30.320Z,3.67
2019-04-11T22:54:01.843Z,3.63
2019-04-11T22:56:30.975Z,3.58
2019-04-11T22:59:00.049Z,3.52
2019-04-11T23:01:29.264Z,3.53
2019-04-11T23:04:00.307Z,3.49
2019-04-11T23:06:29.334Z,3.46
2019-04-11T23:08:58.405Z,3.43
2019-04-11T23:11:27.443Z,3.40
2019-04-11T23:13:56.692Z,3.39
2019-04-11T23:16:25.797Z,3.39
2019-04-11T23:18:54.863Z,3.26
2019-04-11T23:21:23.895Z,3.20
2019-04-11T23:23:53.032Z,3.22
2019-04-11T23:26:22.032Z,3.16
2019-04-11T23:28:51.251Z,3.14
2019-04-11T23:31:21.120Z,3.15
2019-04-11T23:33:51.982Z,3.13
2019-04-11T23:36:21.978Z,3.15
2019-04-11T23:38:52.602Z,3.05
2019-04-11T23:41:21.965Z,3.06
2019-04-11T23:43:50.926Z,2.96
2019-04-11T23:46:22.483Z,2.99
2019-04-11T23:48:54.762Z,2.97
2019-04-11T23:51:25.313Z,2.98
2019-04-11T23:53:53.348Z,2.94
2019-04-11T23:56:23.991Z,2.86
2019-04-11T23:58:53.181Z,2.88
